Forecast Period:  6:00 am 14th November 2019 to 12:00 Noon 14th November 2019
Synopsis: A weak surface to low-level shearline will affect the islands
Forecast:

Partly cloudy to cloudy with light to moderate showers and slight chance of isolated thunderstorm

Weather 
Advisory:

None
Winds:

NE - ENE at 10 - 25 km/h (6 - 16 mph) 

Sea Conditions:

Slight to moderate in open water, with north-easterly  swells  1.0m – 1.5m

Marine Advisory:

None

Upcoming Tides:
High: 06:26 am  
Low: 03:44 pm

Aviation WX

[Source: ADDS]
METAR
TVSA 151000Z 05005KT 010V080 9999 FEW018 SCT028 26/23 Q1011 NOSIG =
TVSA 151100Z 1512/1612 07010KT 9999 SCT016 TEMPO 1512/1514 5000 SHRA BKN014
TAF
TVSA 151100Z 1512/1612 07010KT 9999 SCT016 TEMPO 1512/1514 5000 SHRA BKN014 =
SR / SS: 10:03 / 21:34 UTC (Sunrise Sunset 2019-11-15)